createdAt,value
2023-03-28T00:01:44.633Z,12.058618
2023-03-28T00:06:46.082Z,12.531896
2023-03-28T00:11:47.346Z,12.047924
2023-03-28T00:16:48.604Z,12.133196
2023-03-28T00:21:49.974Z,12.709576
2023-03-28T00:26:51.596Z,12.497198
2023-03-28T00:31:53.027Z,12.105392
2023-03-28T00:36:54.469Z,13.014266
2023-03-28T00:41:55.751Z,13.043128
2023-03-28T00:46:57.115Z,12.44406
2023-03-28T00:51:58.500Z,12.234166
2023-03-28T00:56:59.808Z,12.160118
2023-03-28T01:02:01.513Z,12.825202
2023-03-28T01:07:02.817Z,12.232946
2023-03-28T01:12:04.228Z,12.041412
2023-03-28T01:17:05.831Z,12.297374
2023-03-28T01:22:07.174Z,13.049126
2023-03-28T01:27:08.430Z,13.585626
2023-03-28T01:32:09.947Z,13.005704
2023-03-28T01:37:11.415Z,12.498176
2023-03-28T01:42:12.669Z,13.486566
2023-03-28T01:47:14.089Z,13.737956
2023-03-28T01:52:15.485Z,12.708422
2023-03-28T01:57:17.022Z,12.500726
2023-03-28T02:02:18.556Z,12.974982
2023-03-28T02:07:20.079Z,14.277006
2023-03-28T02:12:21.335Z,14.000282
2023-03-28T02:17:22.769Z,13.967716
2023-03-28T02:22:24.351Z,14.311962
2023-03-28T02:27:25.729Z,14.028534
2023-03-28T02:32:27.092Z,14.086002
2023-03-28T02:37:28.528Z,13.53026
2023-03-28T02:42:29.800Z,13.946614
2023-03-28T02:47:31.218Z,14.235076
2023-03-28T02:52:32.492Z,13.738228
2023-03-28T02:57:33.732Z,14.487076
2023-03-28T03:02:35.044Z,14.07425
2023-03-28T03:07:36.399Z,14.499872
2023-03-28T03:12:37.659Z,14.71499
2023-03-28T03:17:38.976Z,14.390516
2023-03-28T03:22:40.264Z,14.368356
2023-03-28T03:27:41.654Z,14.55681
2023-03-28T03:32:43.089Z,14.92753
2023-03-28T03:37:44.380Z,14.610302
2023-03-28T03:42:45.766Z,14.392184
2023-03-28T03:47:47.194Z,14.230762
2023-03-28T03:52:48.496Z,14.493264
2023-03-28T03:57:49.959Z,14.600056
2023-03-28T04:02:51.475Z,13.94732
2023-03-28T04:07:52.742Z,14.041764
2023-03-28T04:12:54.050Z,14.197122
2023-03-28T04:17:55.760Z,14.454414
2023-03-28T04:22:57.109Z,14.046446
2023-03-28T04:27:58.405Z,13.85597
2023-03-28T04:32:59.904Z,14.097468
2023-03-28T04:38:01.169Z,14.070722
2023-03-28T04:43:02.511Z,13.89216
2023-03-28T04:48:03.958Z,14.108404
2023-03-28T04:53:05.255Z,14.128542
2023-03-28T04:58:06.551Z,14.521068
2023-03-28T05:03:09.279Z,14.851622
2023-03-28T05:08:12.248Z,14.439854
2023-03-28T05:13:13.578Z,14.643412
2023-03-28T05:18:15.223Z,14.31302
2023-03-28T05:23:16.604Z,14.631836
2023-03-28T05:28:18.318Z,14.066136
2023-03-28T05:33:19.590Z,14.99109
2023-03-28T05:38:20.831Z,14.899726
2023-03-28T05:43:22.170Z,14.603422
2023-03-28T05:48:23.671Z,14.916498
2023-03-28T05:53:25.026Z,15.202938
2023-03-28T05:58:26.358Z,15.118644
2023-03-28T06:03:28.135Z,15.465536
2023-03-28T06:08:29.495Z,15.427134
2023-03-28T06:13:30.782Z,15.613566
2023-03-28T06:18:32.056Z,16.855424
2023-03-28T06:23:33.338Z,17.650384
2023-03-28T06:28:34.610Z,18.007616
2023-03-28T06:33:35.918Z,18.293716
2023-03-28T06:38:37.470Z,18.457094
2023-03-28T06:43:38.905Z,18.844098
2023-03-28T06:48:40.408Z,18.065802
2023-03-28T06:53:41.841Z,19.137418
2023-03-28T06:58:43.173Z,18.522078
2023-03-28T07:03:44.705Z,19.257834
2023-03-28T07:08:46.254Z,19.39068
2023-03-28T07:13:47.648Z,20.239172
2023-03-28T07:18:49.090Z,20.732548
2023-03-28T07:23:50.474Z,20.653804
2023-03-28T07:28:51.920Z,20.609228
2023-03-28T07:33:53.686Z,19.809722
2023-03-28T07:38:55.218Z,19.789042
2023-03-28T07:43:56.616Z,19.479574
2023-03-28T07:48:58.037Z,20.527322
2023-03-28T07:53:59.382Z,21.322038
2023-03-28T07:59:00.657Z,21.555272
2023-03-28T08:04:02.276Z,21.279158
2023-03-28T08:09:03.702Z,21.205448
2023-03-28T08:14:05.174Z,20.887662
2023-03-28T08:19:11.416Z,20.858976
2023-03-28T08:24:19.559Z,21.03956
2023-03-28T08:29:23.936Z,21.4443
2023-03-28T08:34:25.892Z,20.749076
2023-03-28T08:39:27.375Z,20.653804
2023-03-28T08:44:28.671Z,21.864034
2023-03-28T08:49:30.137Z,21.310938
2023-03-28T08:54:31.425Z,22.885322
2023-03-28T08:59:33.246Z,22.314124
2023-03-28T09:04:34.565Z,20.481226
2023-03-28T09:09:36.146Z,22.246018
2023-03-28T09:14:37.440Z,21.823176
2023-03-28T09:19:47.769Z,21.807924
2023-03-28T09:24:50.336Z,21.594556
2023-03-28T09:29:51.836Z,21.62829
2023-03-28T09:34:53.823Z,21.41693
2023-03-28T09:39:55.059Z,21.703126
2023-03-28T09:44:56.557Z,22.179758
2023-03-28T09:50:09.588Z,22.823472
2023-03-28T09:55:14.105Z,22.786834
2023-03-28T10:00:15.461Z,21.460814
2023-03-28T10:05:16.987Z,21.86934
2023-03-28T10:10:18.261Z,21.7989
2023-03-28T10:15:19.524Z,23.944578
2023-03-28T10:20:21.037Z,23.088106
2023-03-28T10:25:22.319Z,22.481898
2023-03-28T10:30:23.743Z,22.597294
2023-03-28T10:35:26.598Z,22.691942
2023-03-28T10:40:28.452Z,22.988302
2023-03-28T10:45:29.734Z,23.736882
2023-03-28T10:50:31.146Z,23.107036
2023-03-28T10:55:32.492Z,22.915718
2023-03-28T11:00:33.800Z,22.456686
2023-03-28T11:05:35.320Z,22.319674
2023-03-28T11:10:36.693Z,22.172552
2023-03-28T11:15:37.941Z,22.62408
2023-03-28T11:20:39.469Z,23.187368
2023-03-28T11:25:40.928Z,23.476712
2023-03-28T11:30:42.299Z,22.469346
2023-03-28T11:35:43.806Z,23.02916
2023-03-28T11:40:45.128Z,23.644052
2023-03-28T11:45:51.894Z,23.136902
2023-03-28T11:50:54.326Z,22.760794
2023-03-28T11:55:55.781Z,23.16069
2023-03-28T12:00:57.402Z,22.745786
2023-03-28T12:06:04.487Z,22.323514
2023-03-28T12:11:06.852Z,22.29476
2023-03-28T12:16:08.361Z,21.86246
2023-03-28T12:21:09.963Z,22.382596
2023-03-28T12:26:11.269Z,22.631476
2023-03-28T12:31:12.587Z,21.44164
2023-03-28T12:36:14.577Z,21.38553
2023-03-28T12:41:15.870Z,23.058538
2023-03-28T12:46:17.253Z,21.723684
2023-03-28T12:51:18.647Z,22.846092
2023-03-28T12:56:20.133Z,21.40104
2023-03-28T13:01:21.536Z,22.355728
2023-03-28T13:06:23.539Z,23.134012
2023-03-28T13:11:24.825Z,22.970892
2023-03-28T13:16:26.316Z,22.475276
2023-03-28T13:21:27.870Z,22.220168
2023-03-28T13:26:29.260Z,22.256426
2023-03-28T13:31:30.748Z,22.525796
2023-03-28T13:36:32.311Z,22.443062
2023-03-28T13:41:33.927Z,21.623296
2023-03-28T13:46:35.427Z,21.256714
2023-03-28T13:51:36.813Z,22.21379
2023-03-28T13:56:38.117Z,21.739126
2023-03-28T14:01:39.493Z,21.644424
2023-03-28T14:06:40.899Z,21.270894
2023-03-28T14:11:42.185Z,20.99056
2023-03-28T14:16:43.528Z,21.675132
2023-03-28T14:21:45.181Z,21.388936
2023-03-28T14:26:46.457Z,21.51227
2023-03-28T14:31:47.890Z,21.68611
2023-03-28T14:36:49.664Z,20.426934
2023-03-28T14:41:50.906Z,20.430218
2023-03-28T14:46:52.304Z,20.32983
2023-03-28T14:51:53.805Z,21.42172
2023-03-28T14:56:55.139Z,21.167738
2023-03-28T15:01:56.703Z,20.921016
2023-03-28T15:06:58.297Z,21.477844
2023-03-28T15:11:59.790Z,21.403686
2023-03-28T15:17:01.053Z,21.656908
2023-03-28T15:22:02.552Z,20.25076
2023-03-28T15:27:03.961Z,20.836274
2023-03-28T15:32:05.424Z,20.060596
2023-03-28T15:37:07.067Z,20.129272
2023-03-28T15:42:08.344Z,19.192876
2023-03-28T15:47:09.742Z,20.027066
2023-03-28T15:52:11.028Z,19.186078
2023-03-28T15:57:12.413Z,18.990988
2023-03-28T16:02:13.842Z,19.19384
2023-03-28T16:07:15.351Z,18.879324
2023-03-28T16:12:16.616Z,19.087278
2023-03-28T16:17:18.071Z,18.437608
2023-03-28T16:22:19.484Z,18.395162
2023-03-28T16:27:20.831Z,18.176136
2023-03-28T16:32:22.337Z,18.137666
2023-03-28T16:37:23.584Z,17.947692
2023-03-28T16:42:25.057Z,17.674672
2023-03-28T16:47:26.441Z,17.795252
2023-03-28T16:52:30.066Z,17.444994
2023-03-28T16:57:31.514Z,17.99007
2023-03-28T17:02:33.382Z,16.984036
2023-03-28T17:07:34.922Z,17.085292
2023-03-28T17:12:36.452Z,17.059958
2023-03-28T17:17:37.698Z,17.214068
2023-03-28T17:22:39.072Z,16.687718
2023-03-28T17:27:40.318Z,16.144406
2023-03-28T17:32:41.840Z,15.733778
2023-03-28T17:37:43.165Z,16.191982
2023-03-28T17:42:44.501Z,15.63316
2023-03-28T17:47:45.744Z,15.096228
2023-03-28T17:52:47.041Z,15.019776
2023-03-28T17:57:48.384Z,15.433852
2023-03-28T18:02:49.772Z,15.303026
2023-03-28T18:07:51.359Z,15.803078
2023-03-28T18:12:52.612Z,15.507466
2023-03-28T18:17:53.926Z,15.247866
2023-03-28T18:22:55.646Z,15.737754
2023-03-28T18:27:56.905Z,15.229412
2023-03-28T18:32:58.209Z,15.26358
2023-03-28T18:37:59.810Z,15.413008
2023-03-28T18:43:01.052Z,15.257568
2023-03-28T18:48:02.365Z,14.70218
2023-03-28T18:53:03.887Z,15.231528
2023-03-28T18:58:05.370Z,15.430404
2023-03-28T19:03:06.939Z,14.862396
2023-03-28T19:08:08.490Z,14.804576
2023-03-28T19:13:09.720Z,15.16763
2023-03-28T19:18:10.996Z,14.617628
2023-03-28T19:23:12.553Z,15.053496
2023-03-28T19:28:13.788Z,14.601386
2023-03-28T19:33:15.382Z,14.747204
2023-03-28T19:38:16.823Z,14.65523
2023-03-28T19:43:18.176Z,14.460154
2023-03-28T19:48:19.626Z,14.600938
2023-03-28T19:53:21.121Z,14.547542
2023-03-28T19:58:22.519Z,14.162696
2023-03-28T20:03:24.084Z,14.130644
2023-03-28T20:08:25.365Z,14.512506
2023-03-28T20:13:26.788Z,13.794174
2023-03-28T20:18:28.238Z,13.788272
2023-03-28T20:23:29.633Z,13.70231
2023-03-28T20:28:30.954Z,12.855284
2023-03-28T20:33:32.285Z,13.359122
2023-03-28T20:38:33.895Z,13.451802
2023-03-28T20:43:35.186Z,13.57846
2023-03-28T20:48:36.459Z,13.372094
2023-03-28T20:53:37.947Z,13.92006
2023-03-28T20:58:39.243Z,13.820148
2023-03-28T21:03:40.533Z,13.20896
2023-03-28T21:08:41.825Z,13.752788
2023-03-28T21:13:43.082Z,13.774418
2023-03-28T21:18:44.480Z,13.546246
2023-03-28T21:23:45.859Z,13.93021
2023-03-28T21:28:47.474Z,13.397686
2023-03-28T21:33:48.885Z,13.555418
2023-03-28T21:38:50.308Z,13.872742
2023-03-28T21:43:51.752Z,13.824286
2023-03-28T21:48:53.269Z,13.831342
2023-03-28T21:53:54.906Z,13.91873
2023-03-28T21:58:56.211Z,13.191754
2023-03-28T22:03:57.649Z,13.172432
2023-03-28T22:08:59.004Z,13.34235
2023-03-28T22:14:00.286Z,13.027576
2023-03-28T22:19:01.683Z,12.765522
2023-03-28T22:24:03.191Z,11.937318
2023-03-28T22:29:04.575Z,12.772482
2023-03-28T22:34:06.016Z,13.261584
2023-03-28T22:39:07.550Z,12.75449
2023-03-28T22:44:08.792Z,13.254528
2023-03-28T22:49:10.051Z,13.363966
2023-03-28T22:54:11.346Z,13.055042
2023-03-28T22:59:12.974Z,12.61608
2023-03-28T23:04:14.340Z,12.715382
2023-03-28T23:09:15.789Z,12.921762
2023-03-28T23:14:17.035Z,12.227544
2023-03-28T23:19:18.423Z,12.791562
2023-03-28T23:24:19.820Z,12.932522
2023-03-28T23:29:21.449Z,12.446882
2023-03-28T23:34:22.726Z,12.787762
2023-03-28T23:39:24.124Z,12.767734
2023-03-28T23:44:25.375Z,12.536916
2023-03-28T23:49:26.621Z,12.326846
2023-03-28T23:54:28.112Z,12.552196
2023-03-28T23:59:29.516Z,12.040082
